Temp: 15.2°C   Baro: 1022.9mb
  Wind: 2.0mph   Dir: N (10°)
  Rain: 0.0mm (0.0mm/hr)
  Sun: 0W/m2  Humidity: 72%

Historic data

Bath Spa Weather Station Historical Data
Daily Summary for May 21, 2024 Units:  English    Metric   Both
Daily Weekly Monthly Yearly Custom
  High: Low: Average:
Temperature: 66.4 °F 48.6 °F 57.6 °F
Dew Point: 55.1 °F 44.6 °F 50.5 °F
Humidity: 92% 62.4% 78%
Wind Speed: 6.2mph 0mph 2.1mph
Wind Gust: 15mph - -
Wind- - ESE
Pressure: 29.89 in 29.81 in -
Precipitation: 0.24 in    
Historical Graphs
 
 
Tabular Data for May 21, 2024
Time Temperature Dew Point Pressure Wind Wind Speed Wind Gust Humidity Rainfall Rate (Hourly) solar
00:09 56.2 °F 48.8 °F 29.89 in NE 3 mph 10 mph 76% 0.00 in 0 W/m2
00:14 56.1 °F 48.7 °F 29.89 in ENE 5.2 mph 8 mph 76% 0.00 in 0 W/m2
00:19 56 °F 48.7 °F 29.89 in East 2.9 mph 8 mph 76% 0.00 in 0 W/m2
00:24 55.9 °F 48.8 °F 29.89 in ENE 3.1 mph 9 mph 76.6% 0.00 in 0 W/m2
00:29 55.9 °F 48.8 °F 29.89 in NNE 3.2 mph 9 mph 77% 0.00 in 0 W/m2
00:34 55.8 °F 48.7 °F 29.89 in ENE 2.9 mph 8 mph 77% 0.00 in 0 W/m2
00:39 55.7 °F 48.7 °F 29.89 in NE 3.1 mph 10 mph 77% 0.00 in 0 W/m2
00:44 55.6 °F 48.6 °F 29.89 in NE 2.3 mph 8 mph 77% 0.00 in 0 W/m2
00:49 55.4 °F 48.4 °F 29.89 in NE 4.3 mph 10 mph 77% 0.00 in 0 W/m2
00:54 55.2 °F 48.4 °F 29.89 in ENE 3.1 mph 10 mph 77.4% 0.00 in 0 W/m2
00:59 55.1 °F 48.5 °F 29.89 in ENE 4.6 mph 8 mph 78% 0.00 in 0 W/m2
01:04 55 °F 48.4 °F 29.89 in NE 3.2 mph 7 mph 78% 0.00 in 0 W/m2
01:09 54.9 °F 48.2 °F 29.89 in ENE 4.2 mph 9 mph 78% 0.00 in 0 W/m2
01:14 54.8 °F 48.1 °F 29.89 in ENE 4.3 mph 12 mph 78% 0.00 in 0 W/m2
01:19 54.7 °F 48 °F 29.89 in ENE 5.6 mph 12 mph 78% 0.00 in 0 W/m2
01:24 54.3 °F 47.7 °F 29.89 in ENE 5 mph 14 mph 78% 0.00 in 0 W/m2
01:29 54.2 °F 47.6 °F 29.88 in ENE 3.2 mph 14 mph 78% 0.00 in 0 W/m2
01:34 54 °F 47.3 °F 29.88 in NE 3.7 mph 10 mph 78% 0.00 in 0 W/m2
01:39 53.8 °F 47.1 °F 29.88 in NE 6.2 mph 10 mph 78% 0.00 in 0 W/m2
01:44 53.6 °F 46.9 °F 29.88 in ENE 5.8 mph 12 mph 78% 0.00 in 0 W/m2
01:49 53.4 °F 46.8 °F 29.88 in ENE 5.8 mph 12 mph 78% 0.00 in 0 W/m2
01:54 53.2 °F 46.9 °F 29.88 in East 4.8 mph 15 mph 79% 0.00 in 0 W/m2
01:59 53.2 °F 46.9 °F 29.88 in East 4.8 mph 15 mph 79.2% 0.00 in 0 W/m2
02:04 53.1 °F 47.1 °F 29.88 in East 5.4 mph 12 mph 80% 0.00 in 0 W/m2
02:09 52.9 °F 46.9 °F 29.88 in ESE 2.6 mph 11 mph 80% 0.00 in 0 W/m2
02:14 52.8 °F 46.8 °F 29.88 in East 4.5 mph 11 mph 80% 0.00 in 0 W/m2
02:19 52.5 °F 46.9 °F 29.88 in East 6.1 mph 14 mph 81% 0.00 in 0 W/m2
02:24 52.4 °F 46.9 °F 29.88 in East 4.6 mph 11 mph 81% 0.00 in 0 W/m2
02:28 52.3 °F 46.8 °F 29.88 in ENE 3.5 mph 10 mph 81% 0.00 in 0 W/m2
02:34 52.2 °F 46.6 °F 29.88 in East 2.8 mph 10 mph 81% 0.00 in 0 W/m2
02:39 52.2 °F 46.7 °F 29.88 in East 2.7 mph 8 mph 81.6% 0.00 in 0 W/m2
02:44 52 °F 46.6 °F 29.88 in ESE 3.7 mph 9 mph 82% 0.00 in 0 W/m2
02:49 51.8 °F 46.4 °F 29.88 in ESE 3.7 mph 9 mph 82% 0.00 in 0 W/m2
02:54 51.6 °F 46.2 °F 29.88 in ESE 3.9 mph 9 mph 82% 0.00 in 0 W/m2
02:59 51.6 °F 46.3 °F 29.88 in ESE 2.4 mph 7 mph 82.2% 0.00 in 0 W/m2
03:04 51.5 °F 46.4 °F 29.88 in East 2.2 mph 9 mph 82.8% 0.00 in 0 W/m2
03:09 51.4 °F 46.4 °F 29.88 in East 3.2 mph 6 mph 83% 0.00 in 0 W/m2
03:14 51.4 °F 46.3 °F 29.88 in ESE 2.4 mph 7 mph 83% 0.00 in 0 W/m2
03:19 51.3 °F 46.2 °F 29.88 in East 2.9 mph 9 mph 83% 0.00 in 0 W/m2
03:24 51.2 °F 46.1 °F 29.88 in East 1.7 mph 5 mph 83% 0.00 in 0 W/m2
03:29 51.1 °F 46 °F 29.88 in ESE 2 mph 4 mph 83% 0.00 in 0 W/m2
03:34 51.1 °F 46.2 °F 29.88 in ESE 2.1 mph 7 mph 83.6% 0.00 in 0 W/m2
03:39 50.9 °F 46.2 °F 29.88 in ESE 2.6 mph 5 mph 84% 0.00 in 0 W/m2
03:44 50.9 °F 46.2 °F 29.88 in East 2.4 mph 7 mph 84% 0.00 in 0 W/m2
03:49 50.7 °F 46 °F 29.88 in ESE 1.8 mph 6 mph 84% 0.00 in 0 W/m2
03:54 50.7 °F 46 °F 29.88 in ESE 1.2 mph 4 mph 84% 0.00 in 0 W/m2
03:59 50.5 °F 45.9 °F 29.88 in ESE 0.2 mph 2 mph 84% 0.00 in 0 W/m2
04:04 50.5 °F 45.9 °F 29.88 in ESE 0.6 mph 3 mph 84% 0.00 in 0 W/m2
04:09 50.5 °F 45.9 °F 29.88 in ESE 1 mph 4 mph 84% 0.00 in 0 W/m2
04:14 50.4 °F 45.7 °F 29.88 in ESE 1 mph 2 mph 84% 0.00 in 0 W/m2
04:19 50.4 °F 45.7 °F 29.88 in ESE 0.6 mph 2 mph 84% 0.00 in 0 W/m2
04:23 50.2 °F 45.7 °F 29.88 in ESE 0.2 mph 2 mph 84.5% 0.00 in 0 W/m2
04:29 50.2 °F 45.9 °F 29.88 in Calm   1 mph 85% 0.00 in 0 W/m2
04:34 50.1 °F 45.8 °F 29.88 in Calm   1 mph 85% 0.00 in 0 W/m2
04:39 49.8 °F 45.5 °F 29.88 in Calm     85% 0.00 in 0 W/m2
04:44 49.6 °F 45.3 °F 29.88 in Calm     85% 0.00 in 0 W/m2
04:49 49.6 °F 45.3 °F 29.88 in Calm   1 mph 85% 0.00 in 0 W/m2
04:54 49.5 °F 45.1 °F 29.88 in Calm     85% 0.00 in 0 W/m2
04:59 49.4 °F 45.1 °F 29.88 in Calm     85% 0.00 in 0 W/m2
05:04 49.3 °F 45 °F 29.88 in Calm     85% 0.00 in 0 W/m2
05:09 49.3 °F 45 °F 29.87 in Calm     85% 0.00 in 0 W/m2
05:14 49.1 °F 44.8 °F 29.87 in Calm     85% 0.00 in 0 W/m2
05:19 48.9 °F 44.7 °F 29.87 in Calm     85.2% 0.00 in 5 W/m2
05:24 48.9 °F 45 °F 29.87 in Calm     86% 0.00 in 9 W/m2
05:29 48.8 °F 44.9 °F 29.87 in Calm     86% 0.00 in 11 W/m2
05:34 48.7 °F 44.8 °F 29.87 in Calm     86% 0.00 in 14 W/m2
05:39 48.7 °F 44.8 °F 29.87 in Calm     86% 0.00 in 16 W/m2
05:44 48.7 °F 44.8 °F 29.87 in Calm     86% 0.00 in 18 W/m2
05:49 48.7 °F 44.8 °F 29.86 in Calm     86% 0.00 in 19 W/m2
05:54 48.6 °F 44.6 °F 29.86 in Calm     86% 0.00 in 19 W/m2
05:59 48.6 °F 44.8 °F 29.86 in Calm     87% 0.00 in 23 W/m2
06:04 48.6 °F 44.8 °F 29.86 in Calm     87% 0.00 in 26 W/m2
06:09 48.6 °F 44.8 °F 29.86 in Calm     87% 0.00 in 28 W/m2
06:14 48.6 °F 44.8 °F 29.86 in Calm     87% 0.00 in 30 W/m2
06:19 48.6 °F 44.8 °F 29.86 in Calm     87% 0.00 in 32 W/m2
06:24 48.6 °F 44.8 °F 29.86 in Calm     87% 0.00 in 33 W/m2
06:29 48.7 °F 44.9 °F 29.86 in Calm     87% 0.00 in 46 W/m2
06:34 48.9 °F 45.1 °F 29.86 in ESE 1.4 mph 3 mph 87% 0.00 in 54 W/m2
06:39 49.3 °F 45.7 °F 29.86 in SE 1.2 mph 3 mph 87.4% 0.00 in 70 W/m2
06:44 49.5 °F 46.1 °F 29.86 in SE 1.2 mph 3 mph 88% 0.00 in 81 W/m2
06:49 49.7 °F 45.9 °F 29.86 in SE 0.4 mph 3 mph 87% 0.00 in 95 W/m2
06:54 49.8 °F 46 °F 29.86 in Calm   2 mph 87% 0.00 in 105 W/m2
06:59 50.1 °F 46.3 °F 29.86 in Calm     87% 0.00 in 113 W/m2
07:04 50.4 °F 46.6 °F 29.86 in Calm     87% 0.00 in 134 W/m2
07:09 50.5 °F 46.7 °F 29.86 in SE 0.2 mph 3 mph 86.2% 0.00 in 139 W/m2
07:14 50.9 °F 46.9 °F 29.86 in Calm   3 mph 86% 0.00 in 155 W/m2
07:19 51.2 °F 46.9 °F 29.86 in SE 0.7 mph 3 mph 85.2% 0.00 in 176 W/m2
07:24 51.6 °F 47 °F 29.85 in SE 0.4 mph 2 mph 84.4% 0.00 in 179 W/m2
07:28 51.7 °F 46.7 °F 29.85 in South 1.2 mph 4 mph 83.3% 0.00 in 197 W/m2
07:34 51.8 °F 46.7 °F 29.85 in South 0.8 mph 3 mph 82.6% 0.00 in 178 W/m2
07:39 52.2 °F 46.8 °F 29.85 in South 0.4 mph 2 mph 82% 0.00 in 241 W/m2
07:44 52.5 °F 46.9 °F 29.85 in SW 0.8 mph 5 mph 81% 0.00 in 255 W/m2
07:49 52.6 °F 46.8 °F 29.86 in WSW 1.7 mph 5 mph 80.2% 0.00 in 274 W/m2
07:54 53 °F 46.9 °F 29.86 in NW 0.5 mph 4 mph 79.6% 0.00 in 297 W/m2
07:59 53.3 °F 46.8 °F 29.86 in NW 2.5 mph 5 mph 78.6% 0.00 in 315 W/m2
08:04 53.5 °F 46.8 °F 29.86 in NNE 1.2 mph 5 mph 77.8% 0.00 in 325 W/m2
08:09 53.7 °F 46.5 °F 29.86 in ENE 1 mph 5 mph 76.6% 0.00 in 330 W/m2
08:14 53.8 °F 46.4 °F 29.86 in NE 1.3 mph 5 mph 76% 0.00 in 295 W/m2
08:19 54.2 °F 46.7 °F 29.86 in NE 1.2 mph 5 mph 75.8% 0.00 in 371 W/m2
08:24 54.5 °F 46.8 °F 29.86 in North 2.8 mph 5 mph 75% 0.00 in 385 W/m2
08:29 54.8 °F 46.7 °F 29.87 in North 1.2 mph 5 mph 74% 0.00 in 394 W/m2
08:34 55 °F 46.9 °F 29.86 in NE 3.6 mph 5 mph 74% 0.00 in 381 W/m2
08:39 55.4 °F 46.9 °F 29.87 in NNE 2.6 mph 6 mph 73% 0.00 in 381 W/m2
08:44 55.3 °F 46.6 °F 29.86 in NW 2.5 mph 6 mph 72.4% 0.00 in 411 W/m2
08:49 55.4 °F 46.6 °F 29.87 in NW 1.5 mph 5 mph 72% 0.00 in 334 W/m2
08:54 56 °F 47.1 °F 29.87 in East 2.3 mph 5 mph 72% 0.00 in 313 W/m2
08:59 56.4 °F 47.1 °F 29.86 in SE 1.4 mph 3 mph 71.2% 0.00 in 292 W/m2
09:04 56.7 °F 47.3 °F 29.87 in North 2.4 mph 5 mph 71% 0.00 in 292 W/m2
09:09 56.8 °F 47.4 °F 29.87 in NE 2.4 mph 7 mph 71% 0.00 in 346 W/m2
09:14 57 °F 47.7 °F 29.86 in East 0.9 mph 5 mph 71% 0.00 in 580 W/m2
09:19 57.4 °F 48 °F 29.86 in NE 2.4 mph 5 mph 71% 0.00 in 617 W/m2
09:24 57.5 °F 48 °F 29.86 in North 2 mph 5 mph 70.6% 0.00 in 621 W/m2
09:29 57.8 °F 48.1 °F 29.86 in NW 1.9 mph 4 mph 70% 0.00 in 617 W/m2
09:34 58.5 °F 48.8 °F 29.86 in East 2.5 mph 7 mph 70% 0.00 in 610 W/m2
09:39 59.7 °F 49.8 °F 29.86 in NE 3 mph 9 mph 69.8% 0.00 in 608 W/m2
09:44 60.3 °F 49.7 °F 29.86 in East 2.2 mph 7 mph 68.2% 0.00 in 610 W/m2
09:49 60.6 °F 50 °F 29.86 in North 3.7 mph 8 mph 68% 0.00 in 617 W/m2
09:54 59.6 °F 48.9 °F 29.86 in North 2.3 mph 6 mph 67.8% 0.00 in 633 W/m2
09:59 59.4 °F 49.4 °F 29.86 in NNE 4.8 mph 8 mph 69.4% 0.00 in 654 W/m2
10:04 59.9 °F 49.6 °F 29.86 in ENE 2.1 mph 7 mph 69% 0.00 in 687 W/m2
10:09 61 °F 50.4 °F 29.85 in East 1.9 mph 6 mph 68% 0.00 in 675 W/m2
10:14 61.6 °F 50.2 °F 29.85 in NNW 2 mph 6 mph 66.2% 0.00 in 728 W/m2
10:19 62.2 °F 50.3 °F 29.85 in East 3.1 mph 9 mph 64.8% 0.00 in 715 W/m2
10:24 62.8 °F 50.3 °F 29.85 in ENE 4.6 mph 8 mph 63.8% 0.00 in 717 W/m2
10:29 63.4 °F 50.3 °F 29.85 in NNE 2.7 mph 8 mph 62.4% 0.00 in 729 W/m2
10:34 63.1 °F 50.2 °F 29.85 in North 4 mph 8 mph 62.8% 0.00 in 759 W/m2
10:39 62.1 °F 49.6 °F 29.85 in NNW 3.7 mph 7 mph 63.6% 0.00 in 759 W/m2
10:44 61.2 °F 49.8 °F 29.85 in North 6 mph 11 mph 66% 0.00 in 756 W/m2
10:49 62.1 °F 50.3 °F 29.85 in NE 2.5 mph 10 mph 65.2% 0.00 in 761 W/m2
10:54 63.5 °F 51.2 °F 29.85 in NNE 2.5 mph 7 mph 64.2% 0.00 in 675 W/m2
10:59 63.7 °F 51 °F 29.85 in NNW 3.2 mph 7 mph 63.2% 0.00 in 740 W/m2
11:04 63.2 °F 50.7 °F 29.85 in WNW 3.9 mph 10 mph 63.8% 0.00 in 784 W/m2
11:09 62.6 °F 50.6 °F 29.84 in NNW 6 mph 10 mph 64.8% 0.00 in 784 W/m2
11:14 62.2 °F 50.7 °F 29.84 in WNW 2.1 mph 9 mph 66% 0.00 in 863 W/m2
11:19 62.7 °F 51.2 °F 29.84 in NNE 3.8 mph 8 mph 66% 0.00 in 708 W/m2
11:24 63.7 °F 51.8 °F 29.84 in NNE 0.6 mph 7 mph 65.4% 0.00 in 817 W/m2
11:25 64.2 °F 52.2 °F 29.84 in SE 2 mph 4 mph 65% 0.00 in 531 W/m2
11:34 65.5 °F 53.1 °F 29.84 in NNE 2.6 mph 7 mph 64.2% 0.00 in 413 W/m2
11:38 65.4 °F 52.6 °F 29.84 in North 3.7 mph 7 mph 63.3% 0.00 in 766 W/m2
11:44 65 °F 52.5 °F 29.84 in ENE 4.2 mph 7 mph 64% 0.00 in 733 W/m2
11:49 65.2 °F 52.8 °F 29.84 in NE 3.3 mph 9 mph 64% 0.00 in 677 W/m2
11:54 65.9 °F 53.2 °F 29.84 in ENE 3.3 mph 10 mph 63.8% 0.00 in 707 W/m2
11:59 66.3 °F 53.4 °F 29.84 in ENE 5.4 mph 11 mph 63.4% 0.00 in 854 W/m2
12:04 66.4 °F 53.7 °F 29.84 in North 3.8 mph 9 mph 63.8% 0.00 in 860 W/m2
12:09 65.6 °F 53.2 °F 29.84 in East 3.2 mph 7 mph 64.2% 0.00 in 844 W/m2
12:14 65.4 °F 53.3 °F 29.84 in North 3.7 mph 7 mph 65% 0.00 in 450 W/m2
12:19 65.5 °F 53.4 °F 29.84 in North 4.9 mph 10 mph 65% 0.00 in 485 W/m2
12:24 64.6 °F 52.6 °F 29.84 in NNW 4.4 mph 8 mph 65.2% 0.00 in 682 W/m2
12:29 63.8 °F 52.5 °F 29.84 in WNW 0.9 mph 5 mph 66.8% 0.00 in 606 W/m2
12:34 63.9 °F 52.7 °F 29.83 in NNW 2.4 mph 7 mph 67% 0.00 in 469 W/m2
12:39 64 °F 52.7 °F 29.83 in North 5 mph 8 mph 66.4% 0.00 in 478 W/m2
12:44 64.3 °F 53.1 °F 29.83 in NE 4.4 mph 9 mph 67% 0.00 in 446 W/m2
12:49 65.1 °F 53.6 °F 29.83 in East 3.1 mph 9 mph 66.4% 0.00 in 519 W/m2
12:54 64.8 °F 53.2 °F 29.83 in NNW 2.4 mph 8 mph 66.2% 0.00 in 512 W/m2
12:59 64 °F 53.1 °F 29.83 in NE 3.3 mph 9 mph 67.8% 0.00 in 427 W/m2
13:04 64.8 °F 53.8 °F 29.83 in NE 4.1 mph 9 mph 67.6% 0.00 in 434 W/m2
13:09 65.5 °F 54.3 °F 29.83 in NNE 2.4 mph 8 mph 67% 0.00 in 466 W/m2
13:14 64.8 °F 53.7 °F 29.83 in NNW 2 mph 5 mph 67.2% 0.00 in 471 W/m2
13:19 64 °F 53.3 °F 29.83 in West 3.7 mph 6 mph 68.2% 0.00 in 441 W/m2
13:24 63.6 °F 53.1 °F 29.83 in North 4 mph 7 mph 69% 0.00 in 452 W/m2
13:29 63.1 °F 53 °F 29.83 in NW 3.1 mph 6 mph 69.2% 0.00 in 434 W/m2
13:34 62.9 °F 53.1 °F 29.83 in NNW 3.2 mph 8 mph 70.4% 0.00 in 425 W/m2
13:39 62.8 °F 53.2 °F 29.83 in NW 1 mph 4 mph 70.8% 0.00 in 429 W/m2
13:44 63.1 °F 53.6 °F 29.83 in North 2.4 mph 5 mph 71% 0.00 in 434 W/m2
13:49 63.7 °F 53.9 °F 29.83 in NNE 2.6 mph 6 mph 70.4% 0.00 in 422 W/m2
13:54 64.4 °F 54.4 °F 29.83 in NNE 2.6 mph 6 mph 70.2% 0.00 in 390 W/m2
13:59 64.9 °F 54.5 °F 29.83 in North 2.3 mph 7 mph 69% 0.00 in 396 W/m2
14:04 64.8 °F 54.2 °F 29.82 in ENE 2 mph 6 mph 68.8% 0.00 in 385 W/m2
14:09 65.3 °F 54.8 °F 29.82 in East 0.9 mph 6 mph 68.6% 0.00 in 390 W/m2
14:14 65.6 °F 54.8 °F 29.82 in NE 2.5 mph 7 mph 68% 0.00 in 380 W/m2
14:19 65.5 °F 54.7 °F 29.82 in NNE 3.4 mph 8 mph 68% 0.00 in 424 W/m2
14:24 65.8 °F 55 °F 29.82 in NE 5 mph 8 mph 68% 0.00 in 401 W/m2
14:29 65.9 °F 54.8 °F 29.82 in NE 4.3 mph 8 mph 67.4% 0.00 in 362 W/m2
14:34 65.3 °F 54.4 °F 29.82 in North 4.4 mph 6 mph 67.8% 0.00 in 357 W/m2
14:39 64.6 °F 54.1 °F 29.82 in North 2.9 mph 6 mph 68.8% 0.00 in 297 W/m2
14:44 64.6 °F 54.2 °F 29.82 in NNE 2.1 mph 6 mph 69.2% 0.00 in 274 W/m2
14:49 64.6 °F 54.5 °F 29.82 in NNE 3.2 mph 6 mph 70% 0.00 in 274 W/m2
14:54 64.8 °F 54.7 °F 29.82 in NNE 4.2 mph 7 mph 70% 0.00 in 274 W/m2
14:59 64.8 °F 54.7 °F 29.82 in NE 2.4 mph 5 mph 70% 0.00 in 267 W/m2
15:04 64.6 °F 54.4 °F 29.82 in NNE 3.2 mph 6 mph 69.8% 0.00 in 255 W/m2
15:09 64.6 °F 54.5 °F 29.82 in NNE 3.3 mph 5 mph 70% 0.00 in 232 W/m2
15:14 64.2 °F 54 °F 29.82 in NNE 3.6 mph 6 mph 69.4% 0.00 in 211 W/m2
15:19 63.8 °F 53.9 °F 29.82 in NNE 5.7 mph 8 mph 70% 0.00 in 204 W/m2
15:24 63.5 °F 54 °F 29.82 in NNE 3.3 mph 7 mph 71% 0.00 in 181 W/m2
15:29 63.5 °F 54 °F 29.82 in NNE 3.3 mph 8 mph 71% 0.00 in 178 W/m2
15:34 63.6 °F 54.4 °F 29.82 in NE 2.1 mph 6 mph 71.8% 0.00 in 178 W/m2
15:39 63.9 °F 54.5 °F 29.82 in NNE 5 mph 9 mph 71.6% 0.00 in 172 W/m2
15:44 63.3 °F 54 °F 29.82 in NE 3.5 mph 6 mph 71.6% 0.00 in 186 W/m2
15:49 63.4 °F 54.2 °F 29.82 in NE 4 mph 9 mph 72% 0.00 in 211 W/m2
15:54 63.7 °F 54.5 °F 29.82 in NNE 2.8 mph 6 mph 72% 0.00 in 234 W/m2
15:59 63.4 °F 54.2 °F 29.82 in North 2.6 mph 7 mph 72% 0.00 in 241 W/m2
16:04 63.4 °F 54.5 °F 29.81 in NNE 3.7 mph 7 mph 72.6% 0.00 in 246 W/m2
16:09 63.8 °F 54.6 °F 29.81 in NNE 1.3 mph 6 mph 72% 0.00 in 241 W/m2
16:14 63.9 °F 54.8 °F 29.81 in NE 2.9 mph 6 mph 72% 0.00 in 230 W/m2
16:19 64.3 °F 55.1 °F 29.81 in NNE 4.7 mph 8 mph 72% 0.00 in 243 W/m2
16:24 64.3 °F 55.1 °F 29.81 in NE 3.6 mph 8 mph 72% 0.00 in 246 W/m2
16:29 64 °F 54.9 °F 29.81 in East 2.8 mph 10 mph 72% 0.00 in 241 W/m2
16:34 63.3 °F 54.2 °F 29.81 in East 2.7 mph 9 mph 72.4% 0.00 in 243 W/m2
16:39 63 °F 54.3 °F 29.81 in NE 2.6 mph 6 mph 73.4% 0.00 in 248 W/m2
16:44 62.8 °F 54.3 °F 29.81 in NNE 4 mph 8 mph 74% 0.00 in 244 W/m2
16:49 62.7 °F 54.2 °F 29.81 in NNE 3.4 mph 6 mph 74% 0.00 in 251 W/m2
16:54 62.8 °F 54.3 °F 29.81 in NNE 4.6 mph 9 mph 74% 0.00 in 258 W/m2
16:59 62.8 °F 54.3 °F 29.81 in NNE 2.1 mph 6 mph 74% 0.00 in 258 W/m2
17:04 62.6 °F 54.2 °F 29.81 in ESE 3.3 mph 8 mph 74% 0.00 in 258 W/m2
17:08 62.2 °F 54 °F 29.81 in East 3.5 mph 9 mph 74.5% 0.00 in 258 W/m2
17:14 62.2 °F 54.1 °F 29.81 in ESE 1.9 mph 5 mph 75% 0.00 in 250 W/m2
17:19 62.4 °F 54.3 °F 29.81 in ENE 3.2 mph 7 mph 75% 0.00 in 232 W/m2
17:24 62.6 °F 54.5 °F 29.81 in ENE 1.9 mph 7 mph 75% 0.00 in 213 W/m2
17:29 62.1 °F 53.8 °F 29.81 in ESE 2.2 mph 5 mph 74.4% 0.00 in 192 W/m2
17:34 62.1 °F 54 °F 29.81 in ESE 4.3 mph 7 mph 75% 0.00 in 178 W/m2
17:39 61.7 °F 53.7 °F 29.81 in ESE 2 mph 5 mph 75% 0.00 in 172 W/m2
17:44 61.4 °F 53.8 °F 29.81 in SE 2.2 mph 5 mph 75.8% 0.00 in 158 W/m2
17:49 61.2 °F 53.6 °F 29.81 in SE 1.7 mph 5 mph 76% 0.00 in 146 W/m2
17:54 61.2 °F 53.7 °F 29.81 in ESE 2.5 mph 5 mph 76.2% 0.00 in 139 W/m2
17:59 61.2 °F 54 °F 29.81 in ESE 2.4 mph 8 mph 77% 0.00 in 132 W/m2
18:04 61.1 °F 53.6 °F 29.81 in East 3.3 mph 8 mph 76.4% 0.00 in 127 W/m2
18:09 61.2 °F 54 °F 29.81 in East 3.7 mph 7 mph 77% 0.00 in 118 W/m2
18:14 61.3 °F 54.1 °F 29.81 in ESE 2.5 mph 7 mph 77% 0.00 in 114 W/m2
18:19 61.2 °F 54 °F 29.81 in East 2 mph 6 mph 77% 0.00 in 113 W/m2
18:24 61.2 °F 54 °F 29.82 in NE 1.7 mph 6 mph 77% 0.00 in 102 W/m2
18:29 61.2 °F 54 °F 29.82 in ENE 2.1 mph 4 mph 77% 0.00 in 90 W/m2
18:34 61.2 °F 54 °F 29.82 in East 3.2 mph 5 mph 77% 0.00 in 84 W/m2
18:39 61.2 °F 54.2 °F 29.82 in East 1.5 mph 6 mph 77.8% 0.00 in 84 W/m2
18:44 61.3 °F 54.5 °F 29.82 in East 1.2 mph 3 mph 78% 0.00 in 79 W/m2
18:49 61.3 °F 54.4 °F 29.82 in ENE 2.2 mph 5 mph 78% 0.00 in 84 W/m2
18:54 61.1 °F 54.3 °F 29.82 in ENE 0.8 mph 5 mph 78.2% 0.00 in 81 W/m2
18:59 60.9 °F 54.4 °F 29.82 in ENE 2 mph 4 mph 79% 0.00 in 69 W/m2
19:04 60.5 °F 54.1 °F 29.82 in ENE 1.5 mph 4 mph 79% 0.00 in 69 W/m2
19:09 60.3 °F 53.8 °F 29.82 in NE 2.2 mph 5 mph 79% 0.00 in 72 W/m2
19:14 60 °F 53.5 °F 29.82 in ENE 0.9 mph 5 mph 79% 0.00 in 70 W/m2
19:19 59.7 °F 53.3 °F 29.82 in ENE 2 mph 3 mph 79.2% 0.00 in 65 W/m2
19:24 59.5 °F 53.4 °F 29.82 in ENE 1.2 mph 3 mph 80% 0.00 in 54 W/m2
19:29 59.4 °F 53.4 °F 29.82 in ENE 0.9 mph 3 mph 80.4% 0.00 in 42 W/m2
19:34 59.2 °F 53.4 °F 29.82 in ENE 1.6 mph 4 mph 81% 0.00 in 33 W/m2
19:39 59.1 °F 53.3 °F 29.82 in ENE 0.6 mph 3 mph 81% 0.00 in 35 W/m2
19:44 58.9 °F 53.5 °F 29.82 in Calm   1 mph 82% 0.00 in 35 W/m2
19:49 58.8 °F 53.4 °F 29.82 in Calm     82% 0.00 in 33 W/m2
19:54 58.8 °F 53.4 °F 29.82 in Calm     82% 0.00 in 30 W/m2
19:59 58.5 °F 53.1 °F 29.82 in Calm     82% 0.00 in 23 W/m2
20:04 58.1 °F 52.7 °F 29.82 in ENE 0.5 mph 2 mph 82% 0.00 in 18 W/m2
20:09 57.7 °F 52.7 °F 29.82 in Calm   1 mph 83% 0.00 in 12 W/m2
20:14 57.9 °F 52.7 °F 29.82 in Calm     83% 0.01 in 9 W/m2
20:19 58.1 °F 53.2 °F 29.82 in Calm     83.8% 0.01 in 7 W/m2
20:24 58.1 °F 53.2 °F 29.82 in Calm     84% 0.01 in 5 W/m2
20:29 58.1 °F 53.2 °F 29.82 in Calm     84% 0.01 in 0 W/m2
20:34 58.1 °F 53.2 °F 29.82 in Calm     84% 0.01 in 0 W/m2
20:39 58.1 °F 53.6 °F 29.82 in Calm     85% 0.02 in 0 W/m2
20:44 58.1 °F 53.6 °F 29.82 in Calm     85% 0.02 in 0 W/m2
20:49 58.1 °F 53.6 °F 29.82 in Calm     85% 0.02 in 0 W/m2
20:54 58 °F 53.5 °F 29.82 in Calm     85% 0.02 in 0 W/m2
20:59 57.9 °F 53.4 °F 29.82 in Calm     85% 0.03 in 0 W/m2
21:04 58 °F 53.8 °F 29.82 in Calm     85.6% 0.04 in 0 W/m2
21:09 58.1 °F 54 °F 29.82 in ESE 0.4 mph 3 mph 86% 0.05 in 0 W/m2
21:14 57.8 °F 53.7 °F 29.83 in Calm   1 mph 86% 0.06 in 0 W/m2
21:19 57.5 °F 53.3 °F 29.83 in ESE 0.4 mph 2 mph 86% 0.06 in 0 W/m2
21:24 57.2 °F 53.2 °F 29.83 in SE 1.4 mph 4 mph 86.2% 0.06 in 0 W/m2
21:29 57 °F 53.2 °F 29.83 in SE 0.2 mph 3 mph 87% 0.08 in 0 W/m2
21:34 56.8 °F 53 °F 29.83 in SE 0.9 mph 3 mph 87% 0.08 in 0 W/m2
21:39 56.5 °F 52.7 °F 29.83 in SE 0.5 mph 3 mph 87% 0.08 in 0 W/m2
21:44 56.2 °F 52.8 °F 29.83 in Calm     88% 0.08 in 0 W/m2
21:49 56.1 °F 52.7 °F 29.83 in Calm     88% 0.08 in 0 W/m2
21:54 56.1 °F 52.7 °F 29.83 in Calm     88% 0.09 in 0 W/m2
21:59 56.5 °F 52.9 °F 29.83 in Calm     88% 0.09 in 0 W/m2
22:04 56.3 °F 52.8 °F 29.83 in Calm     88% 0.08 in 0 W/m2
22:09 56.1 °F 52.7 °F 29.83 in Calm     88% 0.09 in 0 W/m2
22:14 56.1 °F 52.9 °F 29.83 in SE 0.2 mph 1 mph 88.8% 0.07 in 0 W/m2
22:19 55.9 °F 52.7 °F 29.83 in South 2 mph 3 mph 89% 0.08 in 0 W/m2
22:24 55.8 °F 52.6 °F 29.82 in South 2 mph 3 mph 89% 0.08 in 0 W/m2
22:29 55.8 °F 52.5 °F 29.82 in SSW 1.4 mph 3 mph 89% 0.08 in 0 W/m2
22:34 55.8 °F 52.5 °F 29.82 in SSW 0.6 mph 3 mph 89% 0.09 in 0 W/m2
22:39 55.7 °F 52.7 °F 29.82 in SSW 1.2 mph 3 mph 89.6% 0.09 in 0 W/m2
22:44 55.6 °F 52.7 °F 29.82 in SSW 1 mph 3 mph 90% 0.09 in 0 W/m2
22:49 55.6 °F 52.7 °F 29.82 in SSW 0.2 mph 2 mph 90% 0.09 in 0 W/m2
22:54 55.5 °F 52.6 °F 29.82 in SSW 0.9 mph 3 mph 90% 0.08 in 0 W/m2
22:59 55.3 °F 52.4 °F 29.82 in SSW 0.2 mph 3 mph 90% 0.08 in 0 W/m2
23:04 55.2 °F 52.3 °F 29.82 in SSW 0.4 mph 3 mph 90% 0.07 in 0 W/m2
23:09 55.2 °F 52.3 °F 29.82 in Calm   2 mph 90% 0.06 in 0 W/m2
23:14 55.2 °F 52.5 °F 29.82 in SSW 1 mph 2 mph 90.4% 0.07 in 0 W/m2
23:19 55.4 °F 52.9 °F 29.82 in SSW 0.4 mph 1 mph 91% 0.06 in 0 W/m2
23:24 55.4 °F 52.9 °F 29.82 in Calm     91% 0.06 in 0 W/m2
23:29 55.5 °F 53 °F 29.81 in SSW 0.7 mph 2 mph 91% 0.06 in 0 W/m2
23:34 55.4 °F 52.9 °F 29.81 in SSW 1.7 mph 4 mph 91% 0.06 in 0 W/m2
23:39 55.2 °F 52.7 °F 29.81 in SSW 1.6 mph 4 mph 91% 0.05 in 0 W/m2
23:44 55.2 °F 52.7 °F 29.81 in SSW 0.5 mph 3 mph 91% 0.05 in 0 W/m2
23:49 55.2 °F 52.7 °F 29.81 in SSW 1.9 mph 4 mph 91% 0.05 in 0 W/m2
23:54 55.2 °F 52.7 °F 29.82 in SSW 1.8 mph 4 mph 91.2% 0.05 in 0 W/m2
23:59 55.2 °F 52.9 °F 29.82 in SSW 2.2 mph 4 mph 92% 0.05 in 0 W/m2
Bath Spa Weather
Compliments of Weather Underground - 2 mb